createdAt,value
2019-03-25T00:00:10.726Z,54.25
2019-03-25T00:02:42.550Z,50.03
2019-03-25T00:05:17.008Z,49.53
2019-03-25T00:07:47.863Z,47.30
2019-03-25T00:10:18.178Z,50.40
2019-03-25T00:12:48.830Z,46.73
2019-03-25T00:15:27.146Z,49.85
2019-03-25T00:17:58.282Z,40.92
2019-03-25T00:20:28.893Z,43.63
2019-03-25T00:23:01.549Z,43.92
2019-03-25T00:25:31.966Z,39.83
2019-03-25T00:28:02.818Z,37.83
2019-03-25T00:30:33.902Z,39.70
2019-03-25T00:33:04.529Z,40.83
2019-03-25T00:35:36.561Z,43.25
2019-03-25T00:38:07.106Z,42.33
2019-03-25T00:40:37.795Z,41.73
2019-03-25T00:43:08.045Z,48.38
2019-03-25T00:45:38.866Z,48.10
2019-03-25T00:48:12.061Z,51.68
2019-03-25T00:50:42.472Z,55.48
2019-03-25T00:53:13.896Z,52.27
2019-03-25T00:55:46.720Z,53.52
2019-03-25T00:58:17.113Z,54.35
2019-03-25T01:00:47.754Z,48.02
2019-03-25T01:03:18.042Z,44.33
2019-03-25T01:05:48.258Z,45.00
2019-03-25T01:08:18.475Z,44.90
2019-03-25T01:10:48.690Z,44.53
2019-03-25T01:13:19.055Z,43.52
2019-03-25T01:15:49.270Z,38.75
2019-03-25T01:18:20.335Z,39.20
2019-03-25T01:20:51.133Z,36.33
2019-03-25T01:23:25.852Z,36.88
2019-03-25T01:25:56.692Z,40.67
2019-03-25T01:28:27.484Z,41.23
2019-03-25T01:30:57.790Z,41.20
2019-03-25T01:33:27.973Z,36.38
2019-03-25T01:35:58.265Z,36.15
2019-03-25T01:38:28.650Z,29.55
2019-03-25T01:40:58.862Z,34.43
2019-03-25T01:43:29.170Z,33.02
2019-03-25T01:46:20.363Z,28.62
2019-03-25T01:48:50.950Z,30.43
2019-03-25T01:51:21.272Z,31.05
2019-03-25T01:53:51.589Z,29.55
2019-03-25T01:56:22.101Z,31.60
2019-03-25T01:58:52.289Z,28.10
2019-03-25T02:01:22.779Z,30.12
2019-03-25T02:03:52.966Z,30.40
2019-03-25T02:06:23.180Z,30.62
2019-03-25T02:08:53.480Z,33.85
2019-03-25T02:11:23.789Z,28.32
2019-03-25T02:13:53.982Z,27.75
2019-03-25T02:16:24.248Z,27.32
2019-03-25T02:18:54.481Z,23.05
2019-03-25T02:21:24.788Z,26.48
2019-03-25T02:23:55.081Z,18.65
2019-03-25T02:26:25.407Z,21.02
2019-03-25T02:28:55.702Z,19.50
2019-03-25T02:31:26.798Z,17.85
2019-03-25T02:33:57.085Z,20.20
2019-03-25T02:36:27.510Z,17.98
2019-03-25T02:38:58.184Z,20.23
2019-03-25T02:41:28.594Z,19.12
2019-03-25T02:43:58.862Z,18.67
2019-03-25T02:46:29.860Z,20.17
2019-03-25T02:49:00.162Z,18.57
2019-03-25T02:51:30.490Z,17.05
2019-03-25T02:54:00.713Z,18.48
2019-03-25T02:56:31.250Z,19.85
2019-03-25T02:59:01.439Z,14.07
2019-03-25T03:01:33.232Z,13.18
2019-03-25T03:04:03.529Z,16.45
2019-03-25T03:06:33.782Z,18.82
2019-03-25T03:09:06.158Z,20.70
2019-03-25T03:11:36.485Z,16.95
2019-03-25T03:14:06.783Z,18.30
2019-03-25T03:16:37.162Z,15.53
2019-03-25T03:19:07.355Z,17.67
2019-03-25T03:21:37.571Z,18.10
2019-03-25T03:24:07.762Z,17.67
2019-03-25T03:26:38.833Z,17.70
2019-03-25T03:29:09.807Z,21.00
2019-03-25T03:31:40.198Z,20.23
2019-03-25T03:34:10.521Z,22.17
2019-03-25T03:36:40.728Z,24.07
2019-03-25T03:39:10.936Z,21.17
2019-03-25T03:41:41.346Z,19.80
2019-03-25T03:44:11.534Z,22.02
2019-03-25T03:46:41.757Z,19.40
2019-03-25T03:49:11.966Z,23.05
2019-03-25T03:51:42.397Z,15.83
2019-03-25T03:54:12.941Z,21.10
2019-03-25T03:56:43.721Z,18.95
2019-03-25T03:59:14.482Z,17.57
2019-03-25T04:01:44.671Z,22.40
2019-03-25T04:04:15.098Z,18.62
2019-03-25T04:06:45.549Z,20.85
2019-03-25T04:09:15.841Z,19.02
2019-03-25T04:11:46.256Z,18.20
2019-03-25T04:14:16.750Z,16.17
2019-03-25T04:16:47.070Z,18.02
2019-03-25T04:19:17.269Z,14.95
2019-03-25T04:21:47.483Z,16.40
2019-03-25T04:24:17.761Z,18.10
2019-03-25T04:26:48.171Z,13.30
2019-03-25T04:29:18.374Z,16.55
2019-03-25T04:31:48.775Z,14.78
2019-03-25T04:34:19.062Z,12.98
2019-03-25T04:36:49.322Z,13.83
2019-03-25T04:39:20.305Z,14.83
2019-03-25T04:41:50.713Z,12.88
2019-03-25T04:44:21.077Z,11.28
2019-03-25T04:46:51.394Z,12.23
2019-03-25T04:49:21.838Z,10.95
2019-03-25T04:51:52.253Z,9.88
2019-03-25T04:54:22.421Z,11.45
2019-03-25T04:56:52.609Z,9.88
2019-03-25T04:59:22.995Z,10.15
2019-03-25T05:01:53.193Z,8.95
2019-03-25T05:04:23.458Z,8.88
2019-03-25T05:06:55.454Z,11.55
2019-03-25T05:09:25.729Z,8.20
2019-03-25T05:11:55.926Z,9.23
2019-03-25T05:14:26.337Z,10.05
2019-03-25T05:16:56.686Z,14.05
2019-03-25T05:19:27.154Z,9.20
2019-03-25T05:21:57.414Z,8.25
2019-03-25T05:24:28.517Z,10.55
2019-03-25T05:26:58.882Z,10.45
2019-03-25T05:29:30.679Z,10.10
2019-03-25T05:32:00.949Z,8.90
2019-03-25T05:34:31.685Z,7.08
2019-03-25T05:37:02.095Z,9.08
2019-03-25T05:39:32.473Z,8.60
2019-03-25T05:42:02.628Z,8.60
2019-03-25T05:44:32.826Z,12.47
2019-03-25T05:47:04.197Z,10.23
2019-03-25T05:49:34.437Z,12.28
2019-03-25T05:52:04.674Z,11.00
2019-03-25T05:54:34.976Z,13.80
2019-03-25T05:57:05.773Z,8.68
2019-03-25T05:59:36.369Z,11.80
2019-03-25T06:02:12.354Z,8.40
2019-03-25T06:04:43.212Z,11.12
2019-03-25T06:07:13.489Z,11.30
2019-03-25T06:09:43.700Z,11.15
2019-03-25T06:12:14.177Z,10.03
2019-03-25T06:14:44.381Z,12.45
2019-03-25T06:17:14.681Z,13.75
2019-03-25T06:19:44.886Z,11.00
2019-03-25T06:22:15.091Z,12.47
2019-03-25T06:24:45.358Z,10.03
2019-03-25T06:27:15.651Z,10.32
2019-03-25T06:29:45.861Z,10.60
2019-03-25T06:32:16.106Z,8.70
2019-03-25T06:34:46.315Z,10.55
2019-03-25T06:37:16.929Z,11.78
2019-03-25T06:39:47.311Z,10.82
2019-03-25T06:42:17.679Z,9.53
2019-03-25T06:44:48.026Z,10.23
2019-03-25T06:47:18.212Z,11.18
2019-03-25T06:49:48.520Z,10.98
2019-03-25T06:52:18.705Z,11.33
2019-03-25T06:54:48.922Z,14.07
2019-03-25T06:57:25.394Z,10.15
2019-03-25T06:59:51.039Z,16.10
2019-03-25T07:02:21.707Z,13.35
2019-03-25T07:04:53.753Z,10.82
2019-03-25T07:07:24.098Z,13.48
2019-03-25T07:09:54.315Z,13.00
2019-03-25T07:12:25.062Z,11.73
2019-03-25T07:14:55.285Z,12.10
2019-03-25T07:17:26.081Z,13.03
2019-03-25T07:19:56.398Z,12.23
2019-03-25T07:22:26.673Z,13.18
2019-03-25T07:24:56.878Z,12.18
2019-03-25T07:27:36.278Z,12.30
2019-03-25T07:29:59.173Z,12.60
2019-03-25T07:32:29.372Z,12.58
2019-03-25T07:34:59.569Z,12.23
2019-03-25T07:37:29.819Z,9.15
2019-03-25T07:40:02.201Z,13.90
2019-03-25T07:42:32.502Z,11.83
2019-03-25T07:45:03.578Z,11.45
2019-03-25T07:47:33.743Z,9.05
2019-03-25T07:50:06.766Z,12.10
2019-03-25T07:52:37.035Z,9.40
2019-03-25T07:55:07.486Z,9.45
2019-03-25T07:57:47.687Z,9.58
2019-03-25T08:00:13.820Z,9.63
2019-03-25T08:02:44.585Z,9.58
2019-03-25T08:05:15.128Z,13.65
2019-03-25T08:07:45.480Z,8.23
2019-03-25T08:10:18.846Z,9.90
2019-03-25T08:12:49.137Z,11.93
2019-03-25T08:15:19.405Z,7.53
2019-03-25T08:17:49.549Z,7.25
2019-03-25T08:20:19.854Z,9.18
2019-03-25T08:22:50.018Z,7.25
2019-03-25T08:25:20.323Z,11.35
2019-03-25T08:27:59.966Z,7.12
2019-03-25T08:30:23.929Z,9.75
2019-03-25T08:32:54.270Z,10.30
2019-03-25T08:35:24.589Z,7.55
2019-03-25T08:37:54.761Z,7.70
2019-03-25T08:40:24.993Z,9.70
2019-03-25T08:42:55.232Z,6.75
2019-03-25T08:45:25.611Z,14.75
2019-03-25T08:47:55.776Z,9.75
2019-03-25T08:50:26.185Z,5.10
2019-03-25T08:52:56.522Z,5.90
2019-03-25T08:55:26.951Z,9.13
2019-03-25T08:57:57.134Z,6.53
2019-03-25T09:00:27.838Z,8.13
2019-03-25T09:02:58.274Z,5.97
2019-03-25T09:05:28.470Z,6.25
2019-03-25T09:07:58.736Z,7.55
2019-03-25T09:10:29.020Z,7.47
2019-03-25T09:12:59.310Z,7.42
2019-03-25T09:15:29.542Z,5.85
2019-03-25T09:17:59.804Z,7.30
2019-03-25T09:20:29.975Z,9.78
2019-03-25T09:23:00.377Z,10.85
2019-03-25T09:25:30.748Z,8.20
2019-03-25T09:28:01.621Z,9.63
2019-03-25T09:30:54.434Z,8.10
2019-03-25T09:33:24.824Z,6.22
2019-03-25T09:35:55.165Z,6.60
2019-03-25T09:38:25.589Z,6.35
2019-03-25T09:40:55.802Z,5.33
2019-03-25T09:43:25.967Z,8.05
2019-03-25T09:45:56.177Z,6.62
2019-03-25T09:48:26.512Z,7.05
2019-03-25T09:50:56.678Z,9.63
2019-03-25T09:53:27.073Z,8.45
2019-03-25T09:55:57.336Z,6.15
2019-03-25T09:58:36.076Z,7.15
2019-03-25T10:00:59.479Z,6.22
2019-03-25T10:03:29.874Z,5.80
2019-03-25T10:06:00.393Z,5.33
2019-03-25T10:08:30.864Z,5.72
2019-03-25T10:11:02.578Z,3.92
2019-03-25T10:13:32.769Z,3.65
2019-03-25T10:16:02.962Z,5.28
2019-03-25T10:18:33.150Z,8.35
2019-03-25T10:21:03.497Z,4.55
2019-03-25T10:23:33.699Z,7.87
2019-03-25T10:26:03.864Z,7.72
2019-03-25T10:28:34.059Z,7.87
2019-03-25T10:31:04.667Z,6.00
2019-03-25T10:33:34.880Z,4.87
2019-03-25T10:36:05.147Z,9.70
2019-03-25T10:38:35.434Z,7.55
2019-03-25T10:41:05.658Z,6.53
2019-03-25T10:43:35.930Z,4.85
2019-03-25T10:46:06.339Z,7.75
2019-03-25T10:48:36.537Z,5.25
2019-03-25T10:51:06.905Z,6.58
2019-03-25T10:53:37.193Z,6.95
2019-03-25T10:56:07.508Z,5.83
2019-03-25T10:58:37.684Z,8.23
2019-03-25T11:01:09.572Z,9.08
2019-03-25T11:03:39.789Z,8.95
2019-03-25T11:06:10.344Z,6.10
2019-03-25T11:08:40.517Z,6.58
2019-03-25T11:11:10.776Z,5.83
2019-03-25T11:13:41.581Z,5.55
2019-03-25T11:16:13.254Z,9.70
2019-03-25T11:18:44.317Z,7.03
2019-03-25T11:21:14.617Z,6.92
2019-03-25T11:23:44.950Z,6.10
2019-03-25T11:26:15.122Z,5.33
2019-03-25T11:28:45.411Z,7.40
2019-03-25T11:31:15.658Z,6.60
2019-03-25T11:33:46.061Z,7.85
2019-03-25T11:36:16.236Z,8.18
2019-03-25T11:38:46.630Z,6.67
2019-03-25T11:41:16.925Z,3.90
2019-03-25T11:43:47.105Z,5.25
2019-03-25T11:46:17.372Z,4.35
2019-03-25T11:48:47.553Z,5.00
2019-03-25T11:51:17.826Z,4.90
2019-03-25T11:53:48.223Z,4.95
2019-03-25T11:56:18.487Z,6.22
2019-03-25T11:58:48.866Z,5.95
2019-03-25T12:01:19.394Z,5.67
2019-03-25T12:03:50.382Z,5.03
2019-03-25T12:06:20.550Z,6.67
2019-03-25T12:08:50.769Z,7.12
2019-03-25T12:11:21.135Z,7.25
2019-03-25T12:13:51.713Z,7.33
2019-03-25T12:16:22.425Z,5.42
2019-03-25T12:18:52.637Z,6.10
2019-03-25T12:21:22.804Z,4.92
2019-03-25T12:23:52.998Z,4.58
2019-03-25T12:26:23.157Z,5.67
2019-03-25T12:28:53.342Z,6.00
2019-03-25T12:31:23.837Z,5.60
2019-03-25T12:33:54.025Z,5.58
2019-03-25T12:36:25.091Z,6.08
2019-03-25T12:38:55.333Z,6.25
2019-03-25T12:41:25.589Z,5.50
2019-03-25T12:43:55.778Z,9.03
2019-03-25T12:46:26.142Z,5.70
2019-03-25T12:48:56.333Z,5.80
2019-03-25T12:51:26.481Z,5.83
2019-03-25T12:53:56.761Z,5.65
2019-03-25T12:56:26.918Z,7.28
2019-03-25T12:58:57.196Z,6.22
2019-03-25T13:01:27.521Z,7.97
2019-03-25T13:03:57.717Z,5.25
2019-03-25T13:06:27.893Z,3.77
2019-03-25T13:09:00.078Z,4.58
2019-03-25T13:11:30.089Z,5.55
2019-03-25T13:14:00.301Z,4.22
2019-03-25T13:16:31.076Z,4.35
2019-03-25T13:19:01.469Z,5.00
2019-03-25T13:21:34.019Z,3.80
2019-03-25T13:24:04.994Z,3.80
2019-03-25T13:26:35.357Z,2.37
2019-03-25T13:29:05.735Z,3.70
2019-03-25T13:31:35.989Z,2.30
2019-03-25T13:34:06.199Z,3.85
2019-03-25T13:36:37.698Z,2.75
2019-03-25T13:39:10.148Z,3.80
2019-03-25T13:41:40.460Z,2.40
2019-03-25T13:44:11.222Z,2.83
2019-03-25T13:46:42.113Z,3.37
2019-03-25T13:49:12.354Z,3.98
2019-03-25T13:51:42.646Z,2.70
2019-03-25T13:54:12.917Z,1.70
2019-03-25T13:56:43.213Z,1.90
2019-03-25T13:59:14.360Z,1.50
2019-03-25T14:01:44.747Z,3.55
2019-03-25T14:04:14.914Z,3.52
2019-03-25T14:06:45.106Z,1.90
2019-03-25T14:09:15.378Z,3.27
2019-03-25T14:11:45.645Z,2.75
2019-03-25T14:14:15.827Z,2.35
2019-03-25T14:16:46.121Z,2.98
2019-03-25T14:19:16.362Z,3.33
2019-03-25T14:21:46.554Z,4.33
2019-03-25T14:24:16.945Z,3.52
2019-03-25T14:26:47.136Z,4.03
2019-03-25T14:29:17.310Z,4.62
2019-03-25T14:31:47.497Z,1.42
2019-03-25T14:34:17.661Z,1.45
2019-03-25T14:36:47.861Z,2.25
2019-03-25T14:39:18.283Z,2.05
2019-03-25T14:41:48.578Z,1.47
2019-03-25T14:44:18.856Z,2.00
2019-03-25T14:46:49.041Z,2.50
2019-03-25T14:49:19.269Z,2.67
2019-03-25T14:51:49.565Z,2.40
2019-03-25T14:54:19.850Z,3.50
2019-03-25T14:56:50.150Z,3.98
2019-03-25T14:59:20.457Z,2.90
2019-03-25T15:01:50.722Z,2.33
2019-03-25T15:04:20.897Z,2.67
2019-03-25T15:06:51.173Z,2.95
2019-03-25T15:09:21.414Z,2.72
2019-03-25T15:11:51.711Z,3.00
2019-03-25T15:14:21.908Z,2.52
2019-03-25T15:16:53.582Z,3.67
2019-03-25T15:19:23.887Z,2.37
2019-03-25T15:21:54.249Z,3.00
2019-03-25T15:24:24.445Z,3.33
2019-03-25T15:26:54.718Z,5.17
2019-03-25T15:29:24.911Z,2.35
2019-03-25T15:31:55.082Z,5.92
2019-03-25T15:34:25.373Z,2.87
2019-03-25T15:36:55.542Z,3.05
2019-03-25T15:39:25.813Z,3.33
2019-03-25T15:41:56.090Z,3.10
2019-03-25T15:44:26.403Z,1.72
2019-03-25T15:46:56.575Z,1.72
2019-03-25T15:49:26.767Z,4.67
2019-03-25T15:51:57.138Z,3.25
2019-03-25T15:54:27.542Z,2.65
2019-03-25T15:56:58.065Z,6.72
2019-03-25T15:59:28.836Z,3.58
2019-03-25T16:01:59.103Z,2.60
2019-03-25T16:04:29.393Z,2.20
2019-03-25T16:06:59.589Z,2.27
2019-03-25T16:09:29.877Z,3.42
2019-03-25T16:12:00.260Z,1.95
2019-03-25T16:14:30.546Z,2.37
2019-03-25T16:17:00.677Z,1.77
2019-03-25T16:19:30.973Z,2.85
2019-03-25T16:22:01.518Z,2.10
2019-03-25T16:24:31.861Z,1.57
2019-03-25T16:27:02.322Z,2.08
2019-03-25T16:29:47.905Z,2.35
2019-03-25T16:32:19.700Z,2.33
2019-03-25T16:34:50.847Z,3.85
2019-03-25T16:37:21.137Z,1.30
2019-03-25T16:39:51.344Z,1.70
2019-03-25T16:42:21.726Z,1.80
2019-03-25T16:44:52.187Z,3.00
2019-03-25T16:47:22.408Z,2.22
2019-03-25T16:49:52.596Z,2.17
2019-03-25T16:52:23.317Z,1.98
2019-03-25T16:54:53.501Z,1.45
2019-03-25T16:57:23.753Z,1.62
2019-03-25T16:59:53.988Z,2.98
2019-03-25T17:02:24.282Z,1.45
2019-03-25T17:04:55.985Z,2.35
2019-03-25T17:07:26.263Z,1.72
2019-03-25T17:09:56.453Z,2.87
2019-03-25T17:12:26.701Z,6.10
2019-03-25T17:14:56.894Z,2.20
2019-03-25T17:17:27.230Z,2.55
2019-03-25T17:19:57.753Z,1.92
2019-03-25T17:22:28.837Z,1.92
2019-03-25T17:24:59.038Z,2.40
2019-03-25T17:27:29.342Z,3.77
2019-03-25T17:29:59.965Z,4.47
2019-03-25T17:32:30.137Z,2.27
2019-03-25T17:35:00.576Z,1.80
2019-03-25T17:37:30.786Z,1.70
2019-03-25T17:40:00.989Z,1.30
2019-03-25T17:42:31.508Z,2.55
2019-03-25T17:45:03.974Z,2.00
2019-03-25T17:47:34.155Z,2.12
2019-03-25T17:50:06.390Z,1.85
2019-03-25T17:52:36.565Z,2.58
2019-03-25T17:55:09.736Z,1.60
2019-03-25T17:57:41.878Z,2.12
2019-03-25T18:00:14.105Z,3.55
2019-03-25T18:02:44.282Z,1.80
2019-03-25T18:05:14.762Z,2.22
2019-03-25T18:07:45.259Z,1.62
2019-03-25T18:10:15.781Z,1.95
2019-03-25T18:12:46.073Z,1.90
2019-03-25T18:15:17.613Z,1.80
2019-03-25T18:17:48.107Z,2.67
2019-03-25T18:20:20.372Z,2.20
2019-03-25T18:22:50.788Z,2.67
2019-03-25T18:25:21.270Z,2.50
2019-03-25T18:27:51.798Z,1.75
2019-03-25T18:30:35.005Z,4.28
2019-03-25T18:33:07.481Z,6.17
2019-03-25T18:35:37.757Z,6.78
2019-03-25T18:38:07.937Z,6.28
2019-03-25T18:40:38.342Z,3.70
2019-03-25T18:43:08.607Z,4.60
2019-03-25T18:45:39.125Z,2.17
2019-03-25T18:48:09.695Z,2.25
2019-03-25T18:50:40.158Z,3.10
2019-03-25T18:53:12.126Z,2.40
2019-03-25T18:55:42.378Z,2.05
2019-03-25T18:58:12.666Z,3.50
2019-03-25T19:00:42.977Z,4.80
2019-03-25T19:03:13.791Z,3.80
2019-03-25T19:05:44.001Z,3.70
2019-03-25T19:08:14.241Z,4.87
2019-03-25T19:10:44.533Z,7.65
2019-03-25T19:13:14.748Z,11.45
2019-03-25T19:15:45.189Z,8.30
2019-03-25T19:18:15.381Z,7.10
2019-03-25T19:20:45.746Z,5.35
2019-03-25T19:23:16.102Z,4.90
2019-03-25T19:25:46.538Z,4.95
2019-03-25T19:28:16.836Z,4.65
2019-03-25T19:30:47.296Z,4.33
2019-03-25T19:33:17.837Z,3.52
2019-03-25T19:35:48.264Z,3.22
2019-03-25T19:38:18.657Z,6.47
2019-03-25T19:40:48.820Z,7.35
2019-03-25T19:43:20.308Z,5.15
2019-03-25T19:45:50.493Z,4.22
2019-03-25T19:48:20.698Z,4.05
2019-03-25T19:50:51.064Z,5.58
2019-03-25T19:53:21.303Z,3.67
2019-03-25T19:55:51.490Z,3.45
2019-03-25T19:58:22.063Z,4.45
2019-03-25T20:00:52.382Z,10.55
2019-03-25T20:03:25.556Z,5.95
2019-03-25T20:05:56.914Z,6.40
2019-03-25T20:08:27.376Z,3.95
2019-03-25T20:10:58.934Z,4.47
2019-03-25T20:13:31.207Z,7.40
2019-03-25T20:16:01.801Z,2.83
2019-03-25T20:18:32.533Z,2.35
2019-03-25T20:21:03.852Z,2.27
2019-03-25T20:23:34.005Z,2.42
2019-03-25T20:26:06.373Z,3.20
2019-03-25T20:28:36.756Z,6.12
2019-03-25T20:31:08.073Z,6.37
2019-03-25T20:33:38.224Z,7.10
2019-03-25T20:36:08.456Z,4.15
2019-03-25T20:38:38.875Z,5.75
2019-03-25T20:41:09.188Z,5.60
2019-03-25T20:43:39.407Z,4.10
2019-03-25T20:46:09.620Z,4.05
2019-03-25T20:48:39.806Z,4.33
2019-03-25T20:51:10.634Z,5.33
2019-03-25T20:53:40.842Z,5.05
2019-03-25T20:56:11.476Z,4.65
2019-03-25T20:58:41.776Z,3.92
2019-03-25T21:01:12.256Z,3.95
2019-03-25T21:03:44.296Z,4.17
2019-03-25T21:06:14.552Z,5.00
2019-03-25T21:08:45.068Z,6.65
2019-03-25T21:11:15.487Z,4.42
2019-03-25T21:13:45.790Z,4.17
2019-03-25T21:16:16.072Z,6.10
2019-03-25T21:18:47.890Z,4.47
2019-03-25T21:21:19.037Z,3.77
2019-03-25T21:23:49.255Z,3.58
2019-03-25T21:26:19.654Z,4.00
2019-03-25T21:28:50.127Z,7.12
2019-03-25T21:31:20.470Z,5.28
2019-03-25T21:33:51.189Z,4.30
2019-03-25T21:36:21.451Z,6.35
2019-03-25T21:38:54.788Z,6.45
2019-03-25T21:41:25.081Z,6.15
2019-03-25T21:43:55.378Z,8.23
2019-03-25T21:46:25.596Z,5.75
2019-03-25T21:48:55.967Z,5.00
2019-03-25T21:51:26.589Z,4.70
2019-03-25T21:53:57.049Z,5.97
2019-03-25T21:56:27.738Z,4.60
2019-03-25T21:59:00.340Z,5.03
2019-03-25T22:01:29.967Z,5.97
2019-03-25T22:04:00.273Z,4.92
2019-03-25T22:06:30.497Z,5.10
2019-03-25T22:09:00.813Z,5.90
2019-03-25T22:11:31.523Z,6.22
2019-03-25T22:14:01.738Z,7.58
2019-03-25T22:16:31.902Z,7.17
2019-03-25T22:19:02.157Z,7.45
2019-03-25T22:21:32.791Z,7.20
2019-03-25T22:24:03.176Z,5.95
2019-03-25T22:26:33.346Z,6.20
2019-03-25T22:29:03.792Z,7.25
2019-03-25T22:31:34.033Z,7.95
2019-03-25T22:34:04.359Z,7.75
2019-03-25T22:36:34.562Z,5.90
2019-03-25T22:39:07.241Z,6.72
2019-03-25T22:41:37.403Z,6.78
2019-03-25T22:44:07.665Z,6.62
2019-03-25T22:46:37.841Z,6.50
2019-03-25T22:49:08.138Z,6.78
2019-03-25T22:51:38.397Z,6.60
2019-03-25T22:54:08.591Z,7.62
2019-03-25T22:56:38.958Z,6.90
2019-03-25T22:59:09.152Z,7.08
2019-03-25T23:01:39.441Z,7.12
2019-03-25T23:04:09.835Z,8.40
2019-03-25T23:06:40.182Z,10.40
2019-03-25T23:09:10.477Z,8.65
2019-03-25T23:11:40.750Z,9.83
2019-03-25T23:14:10.938Z,9.15
2019-03-25T23:16:41.209Z,8.10
2019-03-25T23:19:11.493Z,8.93
2019-03-25T23:21:41.655Z,9.23
2019-03-25T23:24:11.969Z,8.78
2019-03-25T23:26:42.233Z,9.78
2019-03-25T23:29:12.438Z,10.82
2019-03-25T23:31:42.837Z,9.25
2019-03-25T23:34:12.989Z,8.75
2019-03-25T23:36:43.245Z,8.28
2019-03-25T23:39:13.443Z,7.40
2019-03-25T23:41:43.699Z,7.90
2019-03-25T23:44:14.089Z,7.15
2019-03-25T23:46:44.250Z,7.42
2019-03-25T23:49:14.637Z,6.62
2019-03-25T23:51:45.068Z,7.92
2019-03-25T23:54:15.547Z,7.45
2019-03-25T23:56:46.277Z,6.45
2019-03-25T23:59:16.667Z,7.20
